createdAt,value
2023-02-18T00:01:37.733Z,15.75
2023-02-18T00:04:05.194Z,15.43
2023-02-18T00:06:35.431Z,15.42
2023-02-18T00:09:04.162Z,15.63
2023-02-18T00:11:34.513Z,15.60
2023-02-18T00:14:03.949Z,15.37
2023-02-18T00:16:31.845Z,15.58
2023-02-18T00:19:05.377Z,15.73
2023-02-18T00:21:34.646Z,16.14
2023-02-18T00:24:01.679Z,15.96
2023-02-18T00:26:28.639Z,15.73
2023-02-18T00:28:56.520Z,16.09
2023-02-18T00:31:32.486Z,15.68
2023-02-18T00:34:02.536Z,16.50
2023-02-18T00:36:30.080Z,15.88
2023-02-18T00:39:03.857Z,15.57
2023-02-18T00:41:31.523Z,15.59
2023-02-18T00:43:58.852Z,14.60
2023-02-18T00:46:27.409Z,15.67
2023-02-18T00:48:55.926Z,15.26
2023-02-18T00:51:25.191Z,15.15
2023-02-18T00:53:52.656Z,15.43
2023-02-18T00:56:19.936Z,15.64
2023-02-18T00:58:47.359Z,15.45
2023-02-18T01:01:14.548Z,15.65
2023-02-18T01:03:42.668Z,15.95
2023-02-18T01:06:11.477Z,15.29
2023-02-18T01:08:41.784Z,15.46
2023-02-18T01:11:12.132Z,14.92
2023-02-18T01:13:40.203Z,15.29
2023-02-18T01:16:08.320Z,15.61
2023-02-18T01:18:36.091Z,15.30
2023-02-18T01:21:08.371Z,15.31
2023-02-18T01:23:38.789Z,15.22
2023-02-18T01:26:07.050Z,15.54
2023-02-18T01:28:34.666Z,15.01
2023-02-18T01:31:09.084Z,15.08
2023-02-18T01:33:36.512Z,15.54
2023-02-18T01:36:04.336Z,15.25
2023-02-18T01:38:31.200Z,15.28
2023-02-18T01:40:58.197Z,14.87
2023-02-18T01:43:25.066Z,15.45
2023-02-18T01:45:59.879Z,15.81
2023-02-18T01:48:39.973Z,15.88
2023-02-18T01:51:27.376Z,15.46
2023-02-18T01:53:59.100Z,15.53
2023-02-18T01:56:45.547Z,15.87
2023-02-18T01:59:18.412Z,15.53
2023-02-18T02:01:46.677Z,14.91
2023-02-18T02:04:14.010Z,15.42
2023-02-18T02:06:41.809Z,15.65
2023-02-18T02:09:13.619Z,15.14
2023-02-18T02:12:12.523Z,16.11
2023-02-18T02:15:06.762Z,15.64
2023-02-18T02:17:55.039Z,15.47
2023-02-18T02:21:05.866Z,16.00
2023-02-18T02:24:13.961Z,15.80
2023-02-18T02:27:26.836Z,16.04
2023-02-18T02:30:18.096Z,16.02
2023-02-18T02:32:51.202Z,15.19
2023-02-18T02:35:22.898Z,15.26
2023-02-18T02:37:53.559Z,15.68
2023-02-18T02:40:47.168Z,15.66
2023-02-18T02:43:28.410Z,15.22
2023-02-18T02:46:12.191Z,15.35
2023-02-18T02:49:00.409Z,15.11
2023-02-18T02:51:32.692Z,15.05
2023-02-18T02:54:23.228Z,15.19
2023-02-18T02:56:50.993Z,15.00
2023-02-18T02:59:26.398Z,15.36
2023-02-18T03:02:23.285Z,15.54
2023-02-18T03:05:26.492Z,15.30
2023-02-18T03:09:01.269Z,15.89
2023-02-18T03:11:32.749Z,15.43
2023-02-18T03:14:33.676Z,15.26
2023-02-18T03:17:12.317Z,15.04
2023-02-18T03:19:47.417Z,15.20
2023-02-18T03:22:23.592Z,15.31
2023-02-18T03:24:54.340Z,14.50
2023-02-18T03:27:32.667Z,15.27
2023-02-18T03:30:12.204Z,15.43
2023-02-18T03:32:39.125Z,14.76
2023-02-18T03:35:16.315Z,14.96
2023-02-18T03:38:00.945Z,15.32
2023-02-18T03:40:30.595Z,15.13
2023-02-18T03:42:59.401Z,14.65
2023-02-18T03:45:27.179Z,14.95
2023-02-18T03:47:55.127Z,14.77
2023-02-18T03:50:24.626Z,15.28
2023-02-18T03:52:52.037Z,14.78
2023-02-18T03:55:18.980Z,14.57
2023-02-18T03:57:45.944Z,14.65
2023-02-18T04:00:13.492Z,15.08
2023-02-18T04:02:40.849Z,15.38
2023-02-18T04:05:09.741Z,14.80
2023-02-18T04:07:36.973Z,14.84
2023-02-18T04:10:06.128Z,14.82
2023-02-18T04:12:33.043Z,15.24
2023-02-18T04:15:00.333Z,14.68
2023-02-18T04:17:27.207Z,14.65
2023-02-18T04:19:54.465Z,14.81
2023-02-18T04:22:21.763Z,14.70
2023-02-18T04:24:49.223Z,14.17
2023-02-18T04:27:16.480Z,14.58
2023-02-18T04:29:43.767Z,15.26
2023-02-18T04:32:11.082Z,14.95
2023-02-18T04:34:38.370Z,15.14
2023-02-18T04:37:05.241Z,14.76
2023-02-18T04:39:32.157Z,14.18
2023-02-18T04:41:59.430Z,14.73
2023-02-18T04:44:26.425Z,14.72
2023-02-18T04:46:53.702Z,15.43
2023-02-18T04:49:20.573Z,15.39
2023-02-18T04:51:47.898Z,15.22
2023-02-18T04:54:14.820Z,14.68
2023-02-18T04:56:42.114Z,14.87
2023-02-18T04:59:09.427Z,15.07
2023-02-18T05:01:36.437Z,15.18
2023-02-18T05:04:03.499Z,15.44
2023-02-18T05:06:30.466Z,15.51
2023-02-18T05:08:57.313Z,15.79
2023-02-18T05:11:24.449Z,15.62
2023-02-18T05:13:51.358Z,15.85
2023-02-18T05:16:18.239Z,15.30
2023-02-18T05:18:45.116Z,15.43
2023-02-18T05:21:12.556Z,15.48
2023-02-18T05:23:39.862Z,14.62
2023-02-18T05:26:07.094Z,15.02
2023-02-18T05:28:34.479Z,14.45
2023-02-18T05:31:01.841Z,15.69
2023-02-18T05:33:29.177Z,15.42
2023-02-18T05:35:56.456Z,14.96
2023-02-18T05:38:23.433Z,14.94
2023-02-18T05:40:50.395Z,15.06
2023-02-18T05:43:17.597Z,15.55
2023-02-18T05:45:44.497Z,14.77
2023-02-18T05:48:11.786Z,14.45
2023-02-18T05:50:39.340Z,15.04
2023-02-18T05:53:06.467Z,15.67
2023-02-18T05:55:37.856Z,14.83
2023-02-18T05:58:05.963Z,15.28
2023-02-18T06:00:33.405Z,14.59
2023-02-18T06:03:00.420Z,15.45
2023-02-18T06:05:28.692Z,15.20
2023-02-18T06:07:56.845Z,14.88
2023-02-18T06:10:23.868Z,15.24
2023-02-18T06:12:50.848Z,15.07
2023-02-18T06:15:17.784Z,14.82
2023-02-18T06:17:45.166Z,15.72
2023-02-18T06:20:12.783Z,15.36
2023-02-18T06:22:39.692Z,15.09
2023-02-18T06:25:07.196Z,15.81
2023-02-18T06:27:34.515Z,16.05
2023-02-18T06:30:01.800Z,15.42
2023-02-18T06:32:29.149Z,14.95
2023-02-18T06:34:56.446Z,15.19
2023-02-18T06:37:23.901Z,14.49
2023-02-18T06:39:51.194Z,15.18
2023-02-18T06:42:18.075Z,15.16
2023-02-18T06:44:45.361Z,15.04
2023-02-18T06:47:12.653Z,15.21
2023-02-18T06:49:39.937Z,15.61
2023-02-18T06:52:06.897Z,15.68
2023-02-18T06:54:34.692Z,15.38
2023-02-18T06:57:02.022Z,14.82
2023-02-18T06:59:29.347Z,15.24
2023-02-18T07:01:56.676Z,15.90
2023-02-18T07:04:23.564Z,15.43
2023-02-18T07:06:50.899Z,15.31
2023-02-18T07:09:18.228Z,15.61
2023-02-18T07:11:45.504Z,15.23
2023-02-18T07:14:12.785Z,15.37
2023-02-18T07:16:39.771Z,15.52
2023-02-18T07:19:07.194Z,15.25
2023-02-18T07:21:34.165Z,15.18
2023-02-18T07:24:01.500Z,15.88
2023-02-18T07:26:28.513Z,15.73
2023-02-18T07:28:55.889Z,15.61
2023-02-18T07:31:22.947Z,15.66
2023-02-18T07:33:50.266Z,14.80
2023-02-18T07:36:17.537Z,15.66
2023-02-18T07:38:44.796Z,15.81
2023-02-18T07:41:22.330Z,16.03
2023-02-18T07:43:50.109Z,15.81
2023-02-18T07:46:17.422Z,16.06
2023-02-18T07:48:44.868Z,15.23
2023-02-18T07:51:13.074Z,15.28
2023-02-18T07:53:40.803Z,15.91
2023-02-18T07:56:08.544Z,15.32
2023-02-18T07:58:38.072Z,16.00
2023-02-18T08:01:11.392Z,16.01
2023-02-18T08:03:38.841Z,15.93
2023-02-18T08:06:07.471Z,16.23
2023-02-18T08:08:37.012Z,15.42
2023-02-18T08:11:17.983Z,15.48
2023-02-18T08:13:47.172Z,16.09
2023-02-18T08:16:20.228Z,15.81
2023-02-18T08:18:48.474Z,15.81
2023-02-18T08:21:17.901Z,15.87
2023-02-18T08:23:45.924Z,15.97
2023-02-18T08:26:13.847Z,15.30
2023-02-18T08:28:45.898Z,15.01
2023-02-18T08:31:25.047Z,15.92
2023-02-18T08:33:54.539Z,15.40
2023-02-18T08:36:23.122Z,15.79
2023-02-18T08:38:50.368Z,16.30
2023-02-18T08:41:19.061Z,15.96
2023-02-18T08:43:47.525Z,16.45
2023-02-18T08:46:15.886Z,16.52
2023-02-18T08:48:44.853Z,16.76
2023-02-18T08:51:19.211Z,15.83
2023-02-18T08:53:47.201Z,16.42
2023-02-18T08:56:15.661Z,16.38
2023-02-18T08:59:20.052Z,16.50
2023-02-18T09:03:26.053Z,16.54
2023-02-18T09:05:37.628Z,16.80
2023-02-18T09:08:05.116Z,16.05
2023-02-18T09:10:32.553Z,16.78
2023-02-18T09:12:59.886Z,16.68
2023-02-18T09:15:27.788Z,16.67
2023-02-18T09:18:02.720Z,16.28
2023-02-18T09:20:29.748Z,16.77
2023-02-18T09:22:57.768Z,16.79
2023-02-18T09:25:25.656Z,17.27
2023-02-18T09:27:52.615Z,17.22
2023-02-18T09:30:20.087Z,16.60
2023-02-18T09:32:47.056Z,16.99
2023-02-18T09:35:14.253Z,16.71
2023-02-18T09:37:41.801Z,17.38
2023-02-18T09:40:23.745Z,17.21
2023-02-18T09:42:50.779Z,16.88
2023-02-18T09:45:17.742Z,16.87
2023-02-18T09:47:46.293Z,16.44
2023-02-18T09:50:24.232Z,16.82
2023-02-18T09:52:52.227Z,17.49
2023-02-18T09:55:39.277Z,17.16
2023-02-18T09:58:15.165Z,17.35
2023-02-18T10:00:54.681Z,17.66
2023-02-18T10:03:24.570Z,17.45
2023-02-18T10:06:06.501Z,17.68
2023-02-18T10:08:44.867Z,17.22
2023-02-18T10:11:28.860Z,17.83
2023-02-18T10:13:57.445Z,17.23
2023-02-18T10:16:25.616Z,18.33
2023-02-18T10:19:23.837Z,18.01
2023-02-18T10:21:53.071Z,17.28
2023-02-18T10:24:30.370Z,17.58
2023-02-18T10:26:58.312Z,17.08
2023-02-18T10:29:26.016Z,17.53
2023-02-18T10:32:21.990Z,17.27
2023-02-18T10:35:24.047Z,17.61
2023-02-18T10:38:20.447Z,17.04
2023-02-18T10:40:50.531Z,16.81
2023-02-18T10:43:38.558Z,16.94
2023-02-18T10:46:33.242Z,17.20
2023-02-18T10:49:27.497Z,17.31
2023-02-18T10:51:58.205Z,17.47
2023-02-18T10:54:28.353Z,17.75
2023-02-18T10:57:00.424Z,18.13
2023-02-18T10:59:32.364Z,17.39
2023-02-18T11:02:14.504Z,17.36
2023-02-18T11:04:43.629Z,17.72
2023-02-18T11:07:20.000Z,17.40
2023-02-18T11:10:20.729Z,17.46
2023-02-18T11:12:59.525Z,17.29
2023-02-18T11:15:28.466Z,17.87
2023-02-18T11:18:34.819Z,17.36
2023-02-18T11:21:06.480Z,17.48
2023-02-18T11:23:48.389Z,17.88
2023-02-18T11:26:18.244Z,17.32
2023-02-18T11:28:50.467Z,17.16
2023-02-18T11:31:26.213Z,17.04
2023-02-18T11:34:00.672Z,17.23
2023-02-18T11:36:35.111Z,17.06
2023-02-18T11:39:07.508Z,17.73
2023-02-18T11:41:40.221Z,17.47
2023-02-18T11:44:34.518Z,17.73
2023-02-18T11:47:20.311Z,17.57
2023-02-18T11:50:23.526Z,17.81
2023-02-18T11:52:55.018Z,17.43
2023-02-18T11:55:27.274Z,16.70
2023-02-18T11:58:01.462Z,17.46
2023-02-18T12:01:06.954Z,16.84
2023-02-18T12:04:23.169Z,17.53
2023-02-18T12:07:11.519Z,17.94
2023-02-18T12:09:52.120Z,17.61
2023-02-18T12:12:20.305Z,16.40
2023-02-18T12:14:48.140Z,16.83
2023-02-18T12:17:56.256Z,17.04
2023-02-18T12:20:52.232Z,17.39
2023-02-18T12:23:41.388Z,17.05
2023-02-18T12:27:08.133Z,17.14
2023-02-18T12:30:05.181Z,16.93
2023-02-18T12:32:46.264Z,17.84
2023-02-18T12:36:03.059Z,19.87
2023-02-18T12:38:55.327Z,18.67
2023-02-18T12:43:02.284Z,18.49
2023-02-18T12:45:32.312Z,19.78
2023-02-18T12:48:49.562Z,18.15
2023-02-18T12:51:22.805Z,18.22
2023-02-18T12:54:09.424Z,17.42
2023-02-18T12:56:59.126Z,18.35
2023-02-18T13:00:11.786Z,18.06
2023-02-18T13:03:03.273Z,18.06
2023-02-18T13:05:58.831Z,18.60
2023-02-18T13:09:16.685Z,17.58
2023-02-18T13:11:59.495Z,17.85
2023-02-18T13:14:50.069Z,17.68
2023-02-18T13:17:20.764Z,17.46
2023-02-18T13:19:56.221Z,17.99
2023-02-18T13:22:29.588Z,17.50
2023-02-18T13:25:00.698Z,19.06
2023-02-18T13:28:18.595Z,17.48
2023-02-18T13:31:23.433Z,17.97
2023-02-18T13:34:21.836Z,18.04
2023-02-18T13:37:28.374Z,18.68
2023-02-18T13:39:57.795Z,17.81
2023-02-18T13:42:35.265Z,17.94
2023-02-18T13:45:24.214Z,17.84
2023-02-18T13:47:52.856Z,17.95
2023-02-18T13:50:23.441Z,17.67
2023-02-18T13:53:01.130Z,17.06
2023-02-18T13:56:02.369Z,17.89
2023-02-18T13:58:55.262Z,18.03
2023-02-18T14:01:36.564Z,17.53
2023-02-18T14:04:35.419Z,17.87
2023-02-18T14:07:39.798Z,17.83
2023-02-18T14:10:37.732Z,17.59
2023-02-18T14:13:46.060Z,17.63
2023-02-18T14:16:17.056Z,17.28
2023-02-18T14:18:48.667Z,17.10
2023-02-18T14:21:16.220Z,17.61
2023-02-18T14:24:01.712Z,17.24
2023-02-18T14:26:50.935Z,18.18
2023-02-18T14:29:27.949Z,17.51
2023-02-18T14:32:02.318Z,17.55
2023-02-18T14:35:23.208Z,17.50
2023-02-18T14:38:27.571Z,17.94
2023-02-18T14:41:12.949Z,17.55
2023-02-18T14:44:00.934Z,17.48
2023-02-18T14:47:32.460Z,17.58
2023-02-18T14:50:10.954Z,17.45
2023-02-18T14:52:56.515Z,17.84
2023-02-18T14:55:31.579Z,17.88
2023-02-18T14:58:36.513Z,18.19
2023-02-18T15:01:33.519Z,17.78
2023-02-18T15:04:03.537Z,17.52
2023-02-18T15:06:35.162Z,17.59
2023-02-18T15:09:24.911Z,17.98
2023-02-18T15:12:05.969Z,18.01
2023-02-18T15:14:45.409Z,17.70
2023-02-18T15:17:20.824Z,17.59
2023-02-18T15:19:57.283Z,17.06
2023-02-18T15:22:30.448Z,17.54
2023-02-18T15:24:58.149Z,17.20
2023-02-18T15:27:34.951Z,17.82
2023-02-18T15:30:30.978Z,17.25
2023-02-18T15:33:04.006Z,17.20
2023-02-18T15:35:33.307Z,17.51
2023-02-18T15:38:02.878Z,17.33
2023-02-18T15:40:35.513Z,17.80
2023-02-18T15:43:06.966Z,17.66
2023-02-18T15:45:44.653Z,16.71
2023-02-18T15:48:46.165Z,16.74
2023-02-18T15:51:22.205Z,16.87
2023-02-18T15:53:53.391Z,17.02
2023-02-18T15:56:44.203Z,16.86
2023-02-18T15:59:34.882Z,17.17
2023-02-18T16:02:08.680Z,16.95
2023-02-18T16:04:41.946Z,17.04
2023-02-18T16:07:36.501Z,16.91
2023-02-18T16:10:37.718Z,16.62
2023-02-18T16:13:19.967Z,16.59
2023-02-18T16:15:53.094Z,16.56
2023-02-18T16:18:39.195Z,17.25
2023-02-18T16:21:24.714Z,17.36
2023-02-18T16:24:00.815Z,17.52
2023-02-18T16:26:51.087Z,17.22
2023-02-18T16:29:39.401Z,17.33
2023-02-18T16:32:06.751Z,16.92
2023-02-18T16:34:35.679Z,17.61
2023-02-18T16:37:22.104Z,17.53
2023-02-18T16:39:51.977Z,17.48
2023-02-18T16:42:19.031Z,17.22
2023-02-18T16:44:47.995Z,17.88
2023-02-18T16:47:17.117Z,17.51
2023-02-18T16:49:50.192Z,17.57
2023-02-18T16:52:19.256Z,17.10
2023-02-18T16:54:47.790Z,17.39
2023-02-18T16:57:15.082Z,17.57
2023-02-18T16:59:42.379Z,17.34
2023-02-18T17:02:20.757Z,17.57
2023-02-18T17:04:48.136Z,17.35
2023-02-18T17:07:15.015Z,17.57
2023-02-18T17:09:42.322Z,17.67
2023-02-18T17:12:09.956Z,17.47
2023-02-18T17:14:37.363Z,17.54
2023-02-18T17:17:11.313Z,17.29
2023-02-18T17:19:38.162Z,17.08
2023-02-18T17:22:05.472Z,17.08
2023-02-18T17:24:32.754Z,17.21
2023-02-18T17:26:59.686Z,17.56
2023-02-18T17:29:26.946Z,17.18
2023-02-18T17:31:57.566Z,17.09
2023-02-18T17:34:31.055Z,16.65
2023-02-18T17:36:58.462Z,16.92
2023-02-18T17:39:25.791Z,16.69
2023-02-18T17:41:53.088Z,16.96
2023-02-18T17:44:23.021Z,16.88
2023-02-18T17:46:50.379Z,17.24
2023-02-18T17:49:17.339Z,17.16
2023-02-18T17:51:44.760Z,16.97
2023-02-18T17:54:18.331Z,17.14
2023-02-18T17:56:46.212Z,16.78
2023-02-18T17:59:13.467Z,16.90
2023-02-18T18:01:41.000Z,16.21
2023-02-18T18:04:17.503Z,16.62
2023-02-18T18:06:46.705Z,16.50
2023-02-18T18:09:14.063Z,16.55
2023-02-18T18:11:41.361Z,16.41
2023-02-18T18:14:14.040Z,16.90
2023-02-18T18:16:40.966Z,16.51
2023-02-18T18:19:08.279Z,16.20
2023-02-18T18:21:36.460Z,16.56
2023-02-18T18:24:03.781Z,16.24
2023-02-18T18:26:31.006Z,16.10
2023-02-18T18:28:58.292Z,15.51
2023-02-18T18:31:25.302Z,16.14
2023-02-18T18:33:53.586Z,16.04
2023-02-18T18:36:23.811Z,16.29
2023-02-18T18:38:51.201Z,16.01
2023-02-18T18:41:21.619Z,16.11
2023-02-18T18:43:49.682Z,15.97
2023-02-18T18:46:16.955Z,16.46
2023-02-18T18:48:44.295Z,16.82
2023-02-18T18:51:16.633Z,16.36
2023-02-18T18:53:43.639Z,16.49
2023-02-18T18:56:12.176Z,16.34
2023-02-18T18:58:39.451Z,16.05
2023-02-18T19:01:17.772Z,16.77
2023-02-18T19:03:48.588Z,16.30
2023-02-18T19:06:17.273Z,15.85
2023-02-18T19:08:45.498Z,16.06
2023-02-18T19:11:13.200Z,15.99
2023-02-18T19:13:40.633Z,15.89
2023-02-18T19:16:18.880Z,16.17
2023-02-18T19:18:47.054Z,16.39
2023-02-18T19:21:14.638Z,16.25
2023-02-18T19:23:41.959Z,16.28
2023-02-18T19:26:09.665Z,16.37
2023-02-18T19:28:37.147Z,16.08
2023-02-18T19:31:11.408Z,15.74
2023-02-18T19:33:39.107Z,15.77
2023-02-18T19:36:08.970Z,15.81
2023-02-18T19:38:36.331Z,16.01
2023-02-18T19:41:13.378Z,16.25
2023-02-18T19:43:41.972Z,15.82
2023-02-18T19:46:15.476Z,15.43
2023-02-18T19:48:43.338Z,15.66
2023-02-18T19:51:11.650Z,15.59
2023-02-18T19:53:40.887Z,16.13
2023-02-18T19:56:08.519Z,15.66
2023-02-18T19:58:37.242Z,15.10
2023-02-18T20:01:10.694Z,15.48
2023-02-18T20:03:38.788Z,15.70
2023-02-18T20:06:07.093Z,15.73
2023-02-18T20:08:36.883Z,15.83
2023-02-18T20:11:03.930Z,15.78
2023-02-18T20:13:31.680Z,15.93
2023-02-18T20:15:59.436Z,15.43
2023-02-18T20:18:26.982Z,15.74
2023-02-18T20:20:54.430Z,15.95
2023-02-18T20:23:21.987Z,14.94
2023-02-18T20:25:49.498Z,14.88
2023-02-18T20:28:17.531Z,14.74
2023-02-18T20:30:45.377Z,14.06
2023-02-18T20:33:12.968Z,15.01
2023-02-18T20:35:40.502Z,15.07
2023-02-18T20:38:07.928Z,15.32
2023-02-18T20:40:35.353Z,15.28
2023-02-18T20:43:03.176Z,15.52
2023-02-18T20:45:30.839Z,15.32
2023-02-18T20:47:58.897Z,14.56
2023-02-18T20:50:26.921Z,14.95
2023-02-18T20:52:55.180Z,14.75
2023-02-18T20:55:24.322Z,14.94
2023-02-18T20:57:52.009Z,15.33
2023-02-18T21:00:19.646Z,15.38
2023-02-18T21:02:47.657Z,14.25
2023-02-18T21:05:15.714Z,14.45
2023-02-18T21:07:43.486Z,14.29
2023-02-18T21:10:11.151Z,14.67
2023-02-18T21:12:39.631Z,15.26
2023-02-18T21:15:07.887Z,14.38
2023-02-18T21:17:35.394Z,15.10
2023-02-18T21:20:03.270Z,14.36
2023-02-18T21:22:30.889Z,14.99
2023-02-18T21:24:59.747Z,15.33
2023-02-18T21:27:27.395Z,15.52
2023-02-18T21:29:55.251Z,15.82
2023-02-18T21:32:23.058Z,14.89
2023-02-18T21:34:50.785Z,15.06
2023-02-18T21:37:19.297Z,15.04
2023-02-18T21:39:46.931Z,14.96
2023-02-18T21:42:14.522Z,15.38
2023-02-18T21:44:44.822Z,15.46
2023-02-18T21:47:18.014Z,15.07
2023-02-18T21:49:45.474Z,15.59
2023-02-18T21:52:13.508Z,14.89
2023-02-18T21:54:47.018Z,15.40
2023-02-18T21:57:18.155Z,14.88
2023-02-18T21:59:45.735Z,15.34
2023-02-18T22:02:20.212Z,14.97
2023-02-18T22:04:48.673Z,15.18
2023-02-18T22:07:17.695Z,15.60
2023-02-18T22:09:48.667Z,13.99
2023-02-18T22:12:17.316Z,15.34
2023-02-18T22:14:46.326Z,15.37
2023-02-18T22:17:14.806Z,15.45
2023-02-18T22:19:42.868Z,14.48
2023-02-18T22:22:10.332Z,14.22
2023-02-18T22:24:40.013Z,14.18
2023-02-18T22:27:07.405Z,14.71
2023-02-18T22:29:35.005Z,15.17
2023-02-18T22:32:03.074Z,14.61
2023-02-18T22:34:30.544Z,14.82
2023-02-18T22:36:58.034Z,13.81
2023-02-18T22:39:26.381Z,14.53
2023-02-18T22:41:56.325Z,14.11
2023-02-18T22:44:24.331Z,15.04
2023-02-18T22:46:54.210Z,14.91
2023-02-18T22:49:23.909Z,15.16
2023-02-18T22:51:54.047Z,14.16
2023-02-18T22:54:23.693Z,14.62
2023-02-18T22:56:51.117Z,15.21
2023-02-18T22:59:19.369Z,14.70
2023-02-18T23:02:00.577Z,15.12
2023-02-18T23:04:32.150Z,15.18
2023-02-18T23:06:59.442Z,14.61
2023-02-18T23:09:26.913Z,14.94
2023-02-18T23:11:58.044Z,14.59
2023-02-18T23:14:28.083Z,15.10
2023-02-18T23:17:13.628Z,15.07
2023-02-18T23:19:45.378Z,14.55
2023-02-18T23:22:26.774Z,15.11
2023-02-18T23:24:54.110Z,14.54
2023-02-18T23:27:22.319Z,14.79
2023-02-18T23:29:50.260Z,14.65
2023-02-18T23:32:17.729Z,15.34
2023-02-18T23:34:45.196Z,15.18
2023-02-18T23:37:12.598Z,14.80
2023-02-18T23:39:40.024Z,15.45
2023-02-18T23:42:07.952Z,15.38
2023-02-18T23:44:35.344Z,15.79
2023-02-18T23:47:02.733Z,15.59
2023-02-18T23:49:32.452Z,15.72
2023-02-18T23:52:01.868Z,15.72
2023-02-18T23:54:31.478Z,15.81
2023-02-18T23:56:59.228Z,15.74
2023-02-18T23:59:26.622Z,15.90
